createdAt,value
2023-01-05T00:00:25.048Z,24
2023-01-05T00:01:26.976Z,24
2023-01-05T00:02:28.635Z,24
2023-01-05T00:03:30.795Z,24
2023-01-05T00:04:32.498Z,24
2023-01-05T00:05:34.313Z,24
2023-01-05T00:06:35.997Z,24
2023-01-05T00:07:37.642Z,24
2023-01-05T00:08:39.263Z,24
2023-01-05T00:09:41.038Z,24
2023-01-05T00:10:42.643Z,24
2023-01-05T00:11:44.341Z,23.9
2023-01-05T00:12:46.001Z,24
2023-01-05T00:13:47.700Z,24
2023-01-05T00:14:49.372Z,24
2023-01-05T00:15:51.037Z,24
2023-01-05T00:16:52.797Z,24
2023-01-05T00:17:54.849Z,24
2023-01-05T00:18:56.517Z,24
2023-01-05T00:19:58.228Z,24
2023-01-05T00:20:59.886Z,24
2023-01-05T00:22:01.549Z,24
2023-01-05T00:23:03.329Z,24
2023-01-05T00:24:04.992Z,24
2023-01-05T00:25:11.501Z,24
2023-01-05T00:26:14.654Z,24
2023-01-05T00:27:16.354Z,24
2023-01-05T00:28:18.032Z,24
2023-01-05T00:29:19.718Z,24
2023-01-05T00:30:21.370Z,24
2023-01-05T00:31:23.147Z,24
2023-01-05T00:32:25.320Z,23.9
2023-01-05T00:33:26.993Z,24
2023-01-05T00:34:28.615Z,24
2023-01-05T00:35:30.284Z,24
2023-01-05T00:36:31.923Z,24
2023-01-05T00:37:33.627Z,23.9
2023-01-05T00:38:35.317Z,23.9
2023-01-05T00:39:36.961Z,23.9
2023-01-05T00:40:41.303Z,23.9
2023-01-05T00:41:42.937Z,23.9
2023-01-05T00:42:44.577Z,23.9
2023-01-05T00:43:46.224Z,24
2023-01-05T00:44:47.853Z,24
2023-01-05T00:45:49.867Z,24
2023-01-05T00:46:51.862Z,23.9
2023-01-05T00:47:53.512Z,23.9
2023-01-05T00:48:55.188Z,23.9
2023-01-05T00:49:56.872Z,23.9
2023-01-05T00:50:58.690Z,24
2023-01-05T00:52:00.325Z,23.9
2023-01-05T00:53:01.970Z,23.9
2023-01-05T00:54:03.568Z,23.9
2023-01-05T00:55:05.218Z,23.9
2023-01-05T00:56:06.907Z,23.9
2023-01-05T00:57:08.522Z,23.9
2023-01-05T00:58:10.138Z,23.9
2023-01-05T00:59:11.895Z,23.9
2023-01-05T01:00:13.521Z,23.9
2023-01-05T01:01:15.346Z,23.9
2023-01-05T01:02:17.761Z,23.9
2023-01-05T01:03:20.144Z,23.9
2023-01-05T01:04:22.195Z,23.9
2023-01-05T01:05:23.941Z,23.9
2023-01-05T01:06:25.708Z,23.9
2023-01-05T01:07:27.373Z,23.9
2023-01-05T01:08:29.116Z,23.9
2023-01-05T01:09:33.731Z,23.9
2023-01-05T01:10:35.353Z,23.9
2023-01-05T01:11:37.082Z,23.9
2023-01-05T01:12:38.722Z,23.9
2023-01-05T01:13:40.334Z,23.9
2023-01-05T01:14:41.963Z,23.9
2023-01-05T01:15:43.626Z,23.9
2023-01-05T01:16:45.314Z,23.9
2023-01-05T01:17:47.348Z,23.9
2023-01-05T01:18:49.064Z,23.9
2023-01-05T01:19:50.755Z,23.9
2023-01-05T01:20:52.480Z,23.9
2023-01-05T01:21:54.133Z,23.9
2023-01-05T01:22:55.815Z,23.9
2023-01-05T01:23:57.445Z,23.8
2023-01-05T01:24:59.127Z,23.8
2023-01-05T01:26:00.732Z,23.8
2023-01-05T01:27:02.440Z,23.7
2023-01-05T01:28:04.036Z,23.7
2023-01-05T01:29:05.633Z,23.7
2023-01-05T01:30:07.268Z,23.6
2023-01-05T01:31:08.967Z,23.6
2023-01-05T01:32:11.227Z,23.6
2023-01-05T01:33:12.968Z,23.6
2023-01-05T01:34:14.608Z,23.6
2023-01-05T01:35:16.317Z,23.6
2023-01-05T01:36:17.953Z,23.6
2023-01-05T01:37:19.616Z,23.7
2023-01-05T01:38:21.257Z,23.7
2023-01-05T01:39:22.911Z,23.7
2023-01-05T01:40:24.753Z,23.7
2023-01-05T01:41:26.381Z,23.7
2023-01-05T01:42:28.002Z,23.7
2023-01-05T01:43:29.662Z,23.7
2023-01-05T01:44:31.393Z,23.8
2023-01-05T01:45:33.020Z,23.8
2023-01-05T01:46:34.927Z,23.8
2023-01-05T01:47:36.583Z,23.8
2023-01-05T01:48:38.274Z,23.8
2023-01-05T01:49:39.897Z,23.8
2023-01-05T01:50:41.527Z,23.8
2023-01-05T01:51:43.319Z,23.8
2023-01-05T01:52:44.967Z,23.9
2023-01-05T01:53:46.600Z,23.9
2023-01-05T01:54:48.211Z,23.8
2023-01-05T01:55:49.871Z,23.8
2023-01-05T01:56:51.515Z,23.9
2023-01-05T01:57:53.158Z,23.9
2023-01-05T01:58:54.782Z,23.9
2023-01-05T01:59:59.476Z,23.9
2023-01-05T02:01:01.389Z,23.9
2023-01-05T02:02:06.896Z,23.9
2023-01-05T02:03:09.230Z,23.9
2023-01-05T02:04:10.920Z,23.9
2023-01-05T02:05:12.764Z,23.9
2023-01-05T02:06:14.450Z,23.9
2023-01-05T02:07:16.133Z,23.9
2023-01-05T02:08:17.759Z,23.9
2023-01-05T02:09:19.374Z,23.9
2023-01-05T02:10:21.044Z,23.9
2023-01-05T02:11:22.696Z,23.9
2023-01-05T02:12:24.310Z,23.9
2023-01-05T02:13:31.176Z,23.9
2023-01-05T02:14:33.466Z,24
2023-01-05T02:15:38.208Z,24
2023-01-05T02:16:40.362Z,24
2023-01-05T02:17:42.364Z,24
2023-01-05T02:18:44.027Z,24
2023-01-05T02:19:45.688Z,24
2023-01-05T02:20:47.357Z,24
2023-01-05T02:21:49.015Z,24
2023-01-05T02:22:50.723Z,24
2023-01-05T02:23:52.445Z,24
2023-01-05T02:24:54.075Z,24
2023-01-05T02:25:55.694Z,24
2023-01-05T02:26:57.424Z,24
2023-01-05T02:27:59.028Z,24
2023-01-05T02:29:00.671Z,24
2023-01-05T02:30:02.328Z,24
2023-01-05T02:31:04.083Z,24
2023-01-05T02:32:06.320Z,24
2023-01-05T02:33:07.958Z,24
2023-01-05T02:34:09.590Z,24
2023-01-05T02:35:11.282Z,24
2023-01-05T02:36:12.965Z,24
2023-01-05T02:37:14.646Z,24
2023-01-05T02:38:16.298Z,24
2023-01-05T02:39:18.045Z,24
2023-01-05T02:40:19.653Z,24
2023-01-05T02:41:21.283Z,24.1
2023-01-05T02:42:22.969Z,24.1
2023-01-05T02:43:24.612Z,24.1
2023-01-05T02:44:26.264Z,24.1
2023-01-05T02:45:27.889Z,24.1
2023-01-05T02:46:29.533Z,24.1
2023-01-05T02:47:32.048Z,24.1
2023-01-05T02:48:33.768Z,24.1
2023-01-05T02:49:35.554Z,24.1
2023-01-05T02:50:37.224Z,24.1
2023-01-05T02:51:38.835Z,24.1
2023-01-05T02:52:40.495Z,24.1
2023-01-05T02:53:42.226Z,24.1
2023-01-05T02:54:43.851Z,24.1
2023-01-05T02:55:45.475Z,24.1
2023-01-05T02:56:47.062Z,24.1
2023-01-05T02:57:48.673Z,24.1
2023-01-05T02:58:50.347Z,24.1
2023-01-05T02:59:52.063Z,24.1
2023-01-05T03:00:53.667Z,24.1
2023-01-05T03:01:55.458Z,24.1
2023-01-05T03:02:58.005Z,24.1
2023-01-05T03:04:00.910Z,24.2
2023-01-05T03:05:02.595Z,24.1
2023-01-05T03:06:04.243Z,24.2
2023-01-05T03:07:05.881Z,24.2
2023-01-05T03:08:07.649Z,24.2
2023-01-05T03:09:09.341Z,24.2
2023-01-05T03:10:13.950Z,24.2
2023-01-05T03:11:15.595Z,24.1
2023-01-05T03:12:17.226Z,24.1
2023-01-05T03:13:18.843Z,24.1
2023-01-05T03:14:20.553Z,24.1
2023-01-05T03:15:22.182Z,24.1
2023-01-05T03:16:23.888Z,24.1
2023-01-05T03:17:26.135Z,24.2
2023-01-05T03:18:27.779Z,24.2
2023-01-05T03:19:29.408Z,24.2
2023-01-05T03:20:31.024Z,24.2
2023-01-05T03:21:32.685Z,24.2
2023-01-05T03:22:34.472Z,24.2
2023-01-05T03:23:36.107Z,24.2
2023-01-05T03:24:37.896Z,24.2
2023-01-05T03:25:39.723Z,24.2
2023-01-05T03:26:41.398Z,24.2
2023-01-05T03:27:43.011Z,24.2
2023-01-05T03:28:44.697Z,24.2
2023-01-05T03:29:46.380Z,24.2
2023-01-05T03:30:48.004Z,24.2
2023-01-05T03:31:49.983Z,24.2
2023-01-05T03:32:51.579Z,24.2
2023-01-05T03:33:53.200Z,24.2
2023-01-05T03:34:54.896Z,24.2
2023-01-05T03:35:56.498Z,24.2
2023-01-05T03:36:58.199Z,24.2
2023-01-05T03:37:59.839Z,24.2
2023-01-05T03:39:01.505Z,24.2
2023-01-05T03:40:03.152Z,24.2
2023-01-05T03:41:04.825Z,24.2
2023-01-05T03:42:06.450Z,24.2
2023-01-05T03:43:08.074Z,24.2
2023-01-05T03:44:09.731Z,24.2
2023-01-05T03:45:11.430Z,24.2
2023-01-05T03:46:13.159Z,24.2
2023-01-05T03:47:15.079Z,24.2
2023-01-05T03:48:16.712Z,24.2
2023-01-05T03:49:18.365Z,24.2
2023-01-05T03:50:20.094Z,24.2
2023-01-05T03:51:21.756Z,24.2
2023-01-05T03:52:23.482Z,24.2
2023-01-05T03:53:25.084Z,24.2
2023-01-05T03:54:26.792Z,24.2
2023-01-05T03:55:28.468Z,24.2
2023-01-05T03:56:30.275Z,24.2
2023-01-05T03:57:31.888Z,24.2
2023-01-05T03:58:33.494Z,24.2
2023-01-05T03:59:35.136Z,24.2
2023-01-05T04:00:36.801Z,24.2
2023-01-05T04:01:38.592Z,24.2
2023-01-05T04:02:40.943Z,24.2
2023-01-05T04:03:43.812Z,24.2
2023-01-05T04:04:45.814Z,24.2
2023-01-05T04:05:47.444Z,24.2
2023-01-05T04:06:49.373Z,24.3
2023-01-05T04:07:51.052Z,24.3
2023-01-05T04:08:52.711Z,24.2
2023-01-05T04:09:54.392Z,24.2
2023-01-05T04:10:56.052Z,24.2
2023-01-05T04:11:57.828Z,24.2
2023-01-05T04:12:59.515Z,24.2
2023-01-05T04:14:01.166Z,24.2
2023-01-05T04:15:02.926Z,24.2
2023-01-05T04:16:04.623Z,24.2
2023-01-05T04:17:06.610Z,24.2
2023-01-05T04:18:08.272Z,24.2
2023-01-05T04:19:10.115Z,24.2
2023-01-05T04:20:11.758Z,24.2
2023-01-05T04:21:13.458Z,24.2
2023-01-05T04:22:15.141Z,24.2
2023-01-05T04:23:16.920Z,24.3
2023-01-05T04:24:18.540Z,24.3
2023-01-05T04:25:20.178Z,24.3
2023-01-05T04:26:21.882Z,24.3
2023-01-05T04:27:23.521Z,24.3
2023-01-05T04:28:25.164Z,24.2
2023-01-05T04:29:26.896Z,24.2
2023-01-05T04:30:28.495Z,24.2
2023-01-05T04:31:30.187Z,24.2
2023-01-05T04:32:32.139Z,24.1
2023-01-05T04:33:33.751Z,24.1
2023-01-05T04:34:35.566Z,24.1
2023-01-05T04:35:37.301Z,24.1
2023-01-05T04:36:38.945Z,24.1
2023-01-05T04:37:40.582Z,24
2023-01-05T04:38:42.531Z,24
2023-01-05T04:39:44.227Z,23.9
2023-01-05T04:40:45.880Z,23.9
2023-01-05T04:41:47.525Z,23.9
2023-01-05T04:42:49.336Z,23.9
2023-01-05T04:43:51.018Z,23.9
2023-01-05T04:44:52.647Z,23.9
2023-01-05T04:45:54.260Z,23.9
2023-01-05T04:46:55.905Z,23.9
2023-01-05T04:47:58.174Z,23.9
2023-01-05T04:48:59.805Z,23.9
2023-01-05T04:50:01.471Z,23.9
2023-01-05T04:51:03.192Z,23.9
2023-01-05T04:52:04.884Z,23.9
2023-01-05T04:53:06.509Z,23.8
2023-01-05T04:54:08.245Z,23.8
2023-01-05T04:55:09.911Z,23.8
2023-01-05T04:56:11.593Z,23.7
2023-01-05T04:57:13.220Z,23.7
2023-01-05T04:58:14.869Z,23.7
2023-01-05T04:59:16.618Z,23.7
2023-01-05T05:00:18.344Z,23.7
2023-01-05T05:01:20.217Z,23.6
2023-01-05T05:02:22.866Z,23.6
2023-01-05T05:03:29.591Z,23.6
2023-01-05T05:04:35.217Z,23.6
2023-01-05T05:05:36.971Z,23.6
2023-01-05T05:06:38.660Z,23.6
2023-01-05T05:07:40.372Z,23.6
2023-01-05T05:08:42.057Z,23.6
2023-01-05T05:09:43.818Z,23.5
2023-01-05T05:10:45.531Z,23.5
2023-01-05T05:11:47.263Z,23.5
2023-01-05T05:12:48.931Z,23.4
2023-01-05T05:13:50.840Z,23.4
2023-01-05T05:14:52.693Z,23.4
2023-01-05T05:15:54.493Z,23.4
2023-01-05T05:16:56.741Z,23.4
2023-01-05T05:17:58.435Z,23.4
2023-01-05T05:19:10.726Z,23.5
2023-01-05T05:20:12.407Z,23.5
2023-01-05T05:21:14.322Z,23.5
2023-01-05T05:22:16.146Z,23.5
2023-01-05T05:23:17.854Z,23.4
2023-01-05T05:24:19.584Z,23.5
2023-01-05T05:25:21.495Z,23.5
2023-01-05T05:26:23.223Z,23.6
2023-01-05T05:27:25.427Z,23.6
2023-01-05T05:28:27.614Z,23.7
2023-01-05T05:29:29.878Z,23.7
2023-01-05T05:30:31.659Z,23.7
2023-01-05T05:31:33.585Z,23.7
2023-01-05T05:32:39.437Z,23.7
2023-01-05T05:33:46.283Z,23.8
2023-01-05T05:34:47.934Z,23.8
2023-01-05T05:35:49.662Z,23.8
2023-01-05T05:36:51.339Z,23.8
2023-01-05T05:37:56.528Z,23.9
2023-01-05T05:38:58.730Z,23.9
2023-01-05T05:40:00.376Z,24
2023-01-05T05:41:02.081Z,24
2023-01-05T05:42:03.770Z,24
2023-01-05T05:43:05.406Z,24.1
2023-01-05T05:44:07.072Z,24.1
2023-01-05T05:45:08.719Z,24.1
2023-01-05T05:46:10.500Z,24.1
2023-01-05T05:47:12.586Z,24.2
2023-01-05T05:48:14.204Z,24.2
2023-01-05T05:49:15.847Z,24.2
2023-01-05T05:50:17.509Z,24.2
2023-01-05T05:51:19.172Z,24.2
2023-01-05T05:52:20.845Z,24.2
2023-01-05T05:53:22.539Z,24.2
2023-01-05T05:54:24.183Z,24.2
2023-01-05T05:55:25.821Z,24.2
2023-01-05T05:56:27.483Z,24.2
2023-01-05T05:57:29.179Z,24.2
2023-01-05T05:58:30.920Z,24.3
2023-01-05T05:59:32.584Z,24.3
2023-01-05T06:00:34.193Z,24.3
2023-01-05T06:01:35.944Z,24.3
2023-01-05T06:02:38.249Z,24.3
2023-01-05T06:03:40.651Z,24.3
2023-01-05T06:04:42.677Z,24.3
2023-01-05T06:05:44.297Z,24.4
2023-01-05T06:06:45.952Z,24.4
2023-01-05T06:07:47.735Z,24.4
2023-01-05T06:08:49.623Z,24.4
2023-01-05T06:09:51.244Z,24.4
2023-01-05T06:10:53.095Z,24.4
2023-01-05T06:11:55.278Z,24.4
2023-01-05T06:12:57.495Z,24.4
2023-01-05T06:13:59.195Z,24.4
2023-01-05T06:15:00.852Z,24.4
2023-01-05T06:16:02.644Z,24.4
2023-01-05T06:17:04.419Z,24.4
2023-01-05T06:18:06.179Z,24.4
2023-01-05T06:19:08.515Z,24.4
2023-01-05T06:20:10.154Z,24.4
2023-01-05T06:21:11.815Z,24.4
2023-01-05T06:22:13.614Z,24.4
2023-01-05T06:23:15.334Z,24.4
2023-01-05T06:24:17.116Z,24.4
2023-01-05T06:25:18.802Z,24.4
2023-01-05T06:26:20.462Z,24.4
2023-01-05T06:27:22.180Z,24.4
2023-01-05T06:28:23.901Z,24.4
2023-01-05T06:29:25.533Z,24.4
2023-01-05T06:30:27.187Z,24.4
2023-01-05T06:31:28.909Z,24.4
2023-01-05T06:32:30.842Z,24.4
2023-01-05T06:33:32.533Z,24.4
2023-01-05T06:34:34.256Z,24.4
2023-01-05T06:35:35.889Z,24.4
2023-01-05T06:36:37.480Z,24.4
2023-01-05T06:37:39.137Z,24.5
2023-01-05T06:38:40.895Z,24.5
2023-01-05T06:39:43.018Z,24.5
2023-01-05T06:40:44.824Z,24.6
2023-01-05T06:41:46.465Z,24.6
2023-01-05T06:42:48.186Z,24.6
2023-01-05T06:43:49.840Z,24.7
2023-01-05T06:44:51.507Z,24.7
2023-01-05T06:45:53.398Z,24.7
2023-01-05T06:46:55.445Z,24.7
2023-01-05T06:47:57.060Z,24.7
2023-01-05T06:48:58.723Z,24.8
2023-01-05T06:50:00.401Z,24.8
2023-01-05T06:51:02.101Z,24.8
2023-01-05T06:52:03.811Z,24.8
2023-01-05T06:53:05.506Z,24.8
2023-01-05T06:54:07.180Z,24.8
2023-01-05T06:55:09.525Z,24.9
2023-01-05T06:56:11.183Z,24.9
2023-01-05T06:57:12.850Z,25
2023-01-05T06:58:15.229Z,25
2023-01-05T06:59:16.920Z,25
2023-01-05T07:00:18.645Z,25.1
2023-01-05T07:01:20.446Z,25.1
2023-01-05T07:02:25.544Z,25.1
2023-01-05T07:03:27.231Z,25.2
2023-01-05T07:04:29.385Z,25.2
2023-01-05T07:05:31.336Z,25.2
2023-01-05T07:06:32.960Z,25.2
2023-01-05T07:07:34.554Z,25.2
2023-01-05T07:08:36.195Z,25.3
2023-01-05T07:09:37.884Z,25.3
2023-01-05T07:10:39.603Z,25.3
2023-01-05T07:11:41.275Z,25.3
2023-01-05T07:12:42.928Z,25.3
2023-01-05T07:13:45.120Z,25.3
2023-01-05T07:14:46.808Z,25.3
2023-01-05T07:15:51.893Z,25.4
2023-01-05T07:16:53.648Z,25.4
2023-01-05T07:17:56.213Z,25.4
2023-01-05T07:18:57.977Z,25.4
2023-01-05T07:20:00.227Z,25.5
2023-01-05T07:21:01.921Z,25.5
2023-01-05T07:22:03.642Z,25.5
2023-01-05T07:23:05.335Z,25.5
2023-01-05T07:24:07.048Z,25.5
2023-01-05T07:25:09.532Z,25.5
2023-01-05T07:26:11.155Z,25.5
2023-01-05T07:27:12.744Z,25.5
2023-01-05T07:28:14.421Z,25.5
2023-01-05T07:29:16.170Z,25.5
2023-01-05T07:30:17.905Z,25.6
2023-01-05T07:31:19.686Z,25.6
2023-01-05T07:32:21.654Z,25.6
2023-01-05T07:33:24.111Z,25.5
2023-01-05T07:34:25.749Z,25.5
2023-01-05T07:35:27.379Z,25.5
2023-01-05T07:36:28.994Z,25.5
2023-01-05T07:37:30.981Z,25.5
2023-01-05T07:38:32.668Z,25.5
2023-01-05T07:39:34.393Z,25.5
2023-01-05T07:40:36.060Z,25.5
2023-01-05T07:41:40.569Z,25.5
2023-01-05T07:42:42.272Z,25.5
2023-01-05T07:43:43.928Z,25.5
2023-01-05T07:44:45.599Z,25.5
2023-01-05T07:45:47.356Z,25.5
2023-01-05T07:46:49.773Z,25.5
2023-01-05T07:47:52.094Z,25.5
2023-01-05T07:48:53.807Z,25.5
2023-01-05T07:49:55.623Z,25.5
2023-01-05T07:50:57.385Z,25.6
2023-01-05T07:51:59.230Z,25.6
2023-01-05T07:53:00.916Z,25.6
2023-01-05T07:54:03.266Z,25.5
2023-01-05T07:55:04.974Z,25.6
2023-01-05T07:56:06.699Z,25.6
2023-01-05T07:57:08.486Z,25.6
2023-01-05T07:58:10.245Z,25.6
2023-01-05T07:59:11.889Z,25.6
2023-01-05T08:00:13.682Z,25.6
2023-01-05T08:01:15.622Z,25.7
2023-01-05T08:02:18.734Z,25.7
2023-01-05T08:03:21.397Z,25.7
2023-01-05T08:04:23.271Z,25.7
2023-01-05T08:05:25.323Z,25.7
2023-01-05T08:06:27.011Z,25.8
2023-01-05T08:07:28.731Z,25.8
2023-01-05T08:08:30.385Z,25.8
2023-01-05T08:09:32.093Z,25.8
2023-01-05T08:10:33.748Z,25.8
2023-01-05T08:11:35.510Z,25.7
2023-01-05T08:12:37.176Z,25.7
2023-01-05T08:13:38.833Z,25.7
2023-01-05T08:14:40.476Z,25.8
2023-01-05T08:15:46.127Z,25.8
2023-01-05T08:16:53.277Z,25.8
2023-01-05T08:17:55.269Z,25.8
2023-01-05T08:18:56.965Z,25.8
2023-01-05T08:19:58.639Z,25.9
2023-01-05T08:21:00.336Z,25.8
2023-01-05T08:22:02.088Z,25.8
2023-01-05T08:23:04.172Z,25.8
2023-01-05T08:24:06.368Z,25.8
2023-01-05T08:25:08.005Z,25.9
2023-01-05T08:26:09.677Z,25.9
2023-01-05T08:27:11.361Z,25.9
2023-01-05T08:28:13.496Z,25.9
2023-01-05T08:29:15.235Z,25.9
2023-01-05T08:30:16.951Z,25.9
2023-01-05T08:31:18.759Z,25.9
2023-01-05T08:32:20.779Z,25.9
2023-01-05T08:33:22.574Z,25.9
2023-01-05T08:34:25.199Z,25.9
2023-01-05T08:35:36.483Z,26
2023-01-05T08:36:38.113Z,26
2023-01-05T08:37:39.781Z,26
2023-01-05T08:38:41.479Z,25.9
2023-01-05T08:39:43.236Z,25.9
2023-01-05T08:40:44.924Z,25.9
2023-01-05T08:41:46.647Z,25.8
2023-01-05T08:42:48.358Z,25.8
2023-01-05T08:43:50.114Z,25.8
2023-01-05T08:44:51.861Z,25.9
2023-01-05T08:45:53.619Z,25.9
2023-01-05T08:46:55.874Z,25.9
2023-01-05T08:47:57.569Z,25.8
2023-01-05T08:48:59.650Z,25.8
2023-01-05T08:50:02.060Z,25.8
2023-01-05T08:51:03.846Z,25.8
2023-01-05T08:52:05.480Z,25.8
2023-01-05T08:53:07.188Z,25.8
2023-01-05T08:54:08.929Z,25.9
2023-01-05T08:55:11.010Z,25.8
2023-01-05T08:56:13.111Z,25.8
2023-01-05T08:57:14.924Z,25.8
2023-01-05T08:58:16.634Z,25.8
2023-01-05T08:59:18.407Z,25.8
2023-01-05T09:00:20.160Z,25.8
2023-01-05T09:01:22.069Z,25.8
2023-01-05T09:02:25.884Z,25.8
2023-01-05T09:03:28.798Z,25.8
2023-01-05T09:04:34.613Z,25.8
2023-01-05T09:06:56.750Z,25.8
2023-01-05T09:07:58.507Z,25.8
2023-01-05T09:09:00.791Z,25.8
2023-01-05T09:10:02.608Z,25.9
2023-01-05T09:11:04.463Z,25.8
2023-01-05T09:12:06.165Z,25.8
2023-01-05T09:13:07.954Z,25.8
2023-01-05T09:14:09.588Z,25.8
2023-01-05T09:15:11.339Z,25.8
2023-01-05T09:16:13.214Z,25.8
2023-01-05T09:17:15.328Z,25.8
2023-01-05T09:18:17.535Z,25.8
2023-01-05T09:19:19.231Z,25.8
2023-01-05T09:20:20.922Z,25.8
2023-01-05T09:21:22.601Z,25.8
2023-01-05T09:22:24.422Z,25.8
2023-01-05T09:23:26.762Z,25.7
2023-01-05T09:24:28.504Z,25.7
2023-01-05T09:25:30.162Z,25.7
2023-01-05T09:26:31.852Z,25.7
2023-01-05T09:27:33.604Z,25.7
2023-01-05T09:28:35.614Z,25.7
2023-01-05T09:29:37.311Z,25.6
2023-01-05T09:30:43.186Z,25.6
2023-01-05T09:31:52.983Z,25.5
2023-01-05T09:32:54.744Z,25.6
2023-01-05T09:33:56.550Z,25.5
2023-01-05T09:34:58.747Z,25.5
2023-01-05T09:36:00.448Z,25.5
2023-01-05T09:37:02.503Z,25.6
2023-01-05T09:38:04.500Z,25.6
2023-01-05T09:39:06.329Z,25.7
2023-01-05T09:40:08.119Z,25.7
2023-01-05T09:41:09.817Z,25.7
2023-01-05T09:42:11.973Z,25.7
2023-01-05T09:43:13.697Z,25.7
2023-01-05T09:44:15.993Z,25.8
2023-01-05T09:45:17.746Z,25.8
2023-01-05T09:46:19.576Z,25.9
2023-01-05T09:47:21.582Z,25.9
2023-01-05T09:48:23.678Z,25.9
2023-01-05T09:49:25.702Z,25.9
2023-01-05T09:50:27.451Z,26
2023-01-05T09:51:29.132Z,26
2023-01-05T09:52:36.071Z,26
2023-01-05T09:53:40.519Z,26
2023-01-05T09:54:42.118Z,26
2023-01-05T09:55:43.726Z,26
2023-01-05T09:57:11.104Z,26
2023-01-05T09:58:12.969Z,25.9
2023-01-05T09:59:14.666Z,25.9
2023-01-05T10:00:16.719Z,25.9
2023-01-05T10:01:18.638Z,25.9
2023-01-05T10:02:20.834Z,25.8
2023-01-05T10:04:01.544Z,25.9
2023-01-05T10:05:07.301Z,26
2023-01-05T10:06:10.054Z,26
2023-01-05T10:07:11.714Z,26
2023-01-05T10:08:13.301Z,26
2023-01-05T10:09:15.316Z,26
2023-01-05T10:10:17.083Z,26
2023-01-05T10:11:18.849Z,25.9
2023-01-05T10:12:20.591Z,25.9
2023-01-05T10:13:22.376Z,25.8
2023-01-05T10:14:24.610Z,25.6
2023-01-05T10:15:26.380Z,25.4
2023-01-05T10:16:29.703Z,25.4
2023-01-05T10:17:41.523Z,25.3
2023-01-05T10:18:46.371Z,25.3
2023-01-05T10:19:48.072Z,25.3
2023-01-05T10:20:50.083Z,25.2
2023-01-05T10:21:52.452Z,25.1
2023-01-05T10:22:54.197Z,25.2
2023-01-05T10:23:55.855Z,25.2
2023-01-05T10:24:58.271Z,25.1
2023-01-05T10:25:59.939Z,25.1
2023-01-05T10:28:33.497Z,25.2
2023-01-05T10:29:35.230Z,25.2
2023-01-05T10:30:37.045Z,25.1
2023-01-05T10:31:39.011Z,25.1
2023-01-05T10:32:49.586Z,25
2023-01-05T10:33:55.799Z,24.9
2023-01-05T10:35:34.160Z,25
2023-01-05T10:37:13.374Z,25.1
2023-01-05T10:38:15.152Z,25.2
2023-01-05T10:39:16.856Z,25.3
2023-01-05T10:40:18.855Z,25.3
2023-01-05T10:41:20.878Z,25.4
2023-01-05T10:42:22.596Z,25.4
2023-01-05T10:43:24.195Z,25.5
2023-01-05T10:44:25.875Z,25.5
2023-01-05T10:45:27.657Z,25.5
2023-01-05T10:46:35.273Z,25.5
2023-01-05T10:47:54.152Z,25.6
2023-01-05T10:48:56.563Z,25.6
2023-01-05T10:49:58.483Z,25.6
2023-01-05T10:51:00.205Z,25.6
2023-01-05T10:52:01.966Z,25.6
2023-01-05T10:53:03.971Z,25.6
2023-01-05T10:54:05.697Z,25.6
2023-01-05T10:55:07.626Z,25.6
2023-01-05T10:56:09.819Z,25.6
2023-01-05T10:57:11.616Z,25.6
2023-01-05T10:58:13.232Z,25.7
2023-01-05T10:59:14.985Z,25.7
2023-01-05T11:00:17.451Z,25.6
2023-01-05T11:01:20.356Z,25.6
2023-01-05T11:02:22.866Z,25.6
2023-01-05T11:03:47.058Z,25.7
2023-01-05T11:05:37.613Z,25.8
2023-01-05T11:06:39.742Z,25.8
2023-01-05T11:07:41.389Z,25.8
2023-01-05T11:08:43.353Z,25.8
2023-01-05T11:09:45.264Z,25.8
2023-01-05T11:10:47.119Z,25.7
2023-01-05T11:11:49.153Z,25.7
2023-01-05T11:12:50.895Z,25.7
2023-01-05T11:13:52.588Z,25.8
2023-01-05T11:14:58.305Z,25.7
2023-01-05T11:16:01.043Z,25.7
2023-01-05T11:17:03.302Z,25.7
2023-01-05T11:18:05.066Z,25.8
2023-01-05T11:19:06.722Z,25.8
2023-01-05T11:20:08.986Z,25.8
2023-01-05T11:21:10.912Z,25.8
2023-01-05T11:22:12.822Z,25.8
2023-01-05T11:23:15.051Z,25.9
2023-01-05T11:24:17.138Z,25.9
2023-01-05T11:25:19.034Z,25.9
2023-01-05T11:26:21.057Z,25.9
2023-01-05T11:27:23.273Z,25.9
2023-01-05T11:28:25.081Z,25.9
2023-01-05T11:29:26.870Z,25.9
2023-01-05T11:30:28.620Z,25.9
2023-01-05T11:31:30.410Z,25.9
2023-01-05T11:32:32.644Z,25.9
2023-01-05T11:33:34.327Z,26
2023-01-05T11:34:36.062Z,25.9
2023-01-05T11:35:38.223Z,25.9
2023-01-05T11:36:39.979Z,25.9
2023-01-05T11:37:41.826Z,25.9
2023-01-05T11:38:44.697Z,26
2023-01-05T11:39:46.556Z,26
2023-01-05T11:40:48.529Z,26
2023-01-05T11:41:50.297Z,26
2023-01-05T11:42:52.333Z,26
2023-01-05T11:43:54.123Z,26
2023-01-05T11:44:55.860Z,26
2023-01-05T11:45:57.578Z,26
2023-01-05T11:46:59.486Z,26
2023-01-05T11:48:01.181Z,26
2023-01-05T11:49:02.962Z,26
2023-01-05T11:50:09.050Z,26
2023-01-05T11:51:11.615Z,26.1
2023-01-05T11:52:13.228Z,26
2023-01-05T11:53:15.008Z,26.1
2023-01-05T11:54:16.867Z,26.1
2023-01-05T11:55:18.961Z,26.1
2023-01-05T11:56:20.632Z,26.1
2023-01-05T11:57:22.270Z,26.1
2023-01-05T11:58:24.002Z,26.1
2023-01-05T11:59:25.707Z,26
2023-01-05T12:00:27.435Z,26.1
2023-01-05T12:01:29.595Z,26
2023-01-05T12:02:31.664Z,26
2023-01-05T12:03:33.966Z,26.1
2023-01-05T12:04:35.949Z,26.1
2023-01-05T12:05:37.631Z,26.1
2023-01-05T12:06:39.349Z,26.1
2023-01-05T12:07:41.458Z,26.1
2023-01-05T12:08:43.165Z,26.1
2023-01-05T12:09:45.226Z,26.1
2023-01-05T12:10:47.232Z,26.1
2023-01-05T12:11:48.894Z,26.1
2023-01-05T12:12:50.520Z,26.1
2023-01-05T12:13:52.606Z,26.1
2023-01-05T12:14:54.556Z,26.1
2023-01-05T12:16:01.796Z,26.1
2023-01-05T12:17:04.511Z,26.1
2023-01-05T12:18:06.806Z,26.1
2023-01-05T12:19:08.844Z,26.1
2023-01-05T12:20:10.585Z,26.1
2023-01-05T12:21:12.242Z,26.1
2023-01-05T12:22:13.936Z,26.1
2023-01-05T12:23:15.632Z,26.1
2023-01-05T12:24:17.377Z,26.1
2023-01-05T12:25:19.061Z,26.1
2023-01-05T12:26:21.249Z,26
2023-01-05T12:27:23.254Z,26
2023-01-05T12:28:40.287Z,26.1
2023-01-05T12:31:06.760Z,26.1
2023-01-05T12:34:25.221Z,26.3
2023-01-05T12:35:27.367Z,26.3
2023-01-05T12:36:29.061Z,26.2
2023-01-05T12:37:30.988Z,26.2
2023-01-05T12:38:32.830Z,26.2
2023-01-05T12:39:34.520Z,26.1
2023-01-05T12:40:36.172Z,26.1
2023-01-05T12:41:38.158Z,26
2023-01-05T12:42:39.845Z,26.1
2023-01-05T12:43:41.543Z,26.1
2023-01-05T12:44:43.181Z,26.1
2023-01-05T12:45:45.093Z,26.1
2023-01-05T12:46:46.976Z,26.1
2023-01-05T12:47:49.119Z,26.1
2023-01-05T12:48:50.722Z,26.1
2023-01-05T12:49:52.384Z,26
2023-01-05T12:50:54.005Z,26
2023-01-05T12:51:57.866Z,26
2023-01-05T12:53:08.543Z,26
2023-01-05T12:54:10.318Z,25.9
2023-01-05T12:55:11.979Z,25.9
2023-01-05T12:56:13.631Z,25.9
2023-01-05T12:57:15.623Z,25.9
2023-01-05T12:58:17.302Z,25.9
2023-01-05T12:59:19.006Z,25.9
2023-01-05T13:00:20.658Z,25.8
2023-01-05T13:01:22.706Z,25.9
2023-01-05T13:02:25.228Z,25.9
2023-01-05T13:03:27.447Z,25.9
2023-01-05T13:04:32.661Z,25.8
2023-01-05T13:05:57.363Z,25.9
2023-01-05T13:06:59.047Z,25.8
2023-01-05T13:08:00.710Z,25.9
2023-01-05T13:09:02.802Z,25.9
2023-01-05T13:10:05.159Z,25.8
2023-01-05T13:11:06.910Z,25.9
2023-01-05T13:12:08.595Z,25.8
2023-01-05T13:13:10.629Z,25.9
2023-01-05T13:14:12.384Z,25.9
2023-01-05T13:15:14.015Z,25.9
2023-01-05T13:16:15.763Z,25.9
2023-01-05T13:17:18.281Z,25.8
2023-01-05T13:18:19.983Z,25.8
2023-01-05T13:19:21.661Z,25.8
2023-01-05T13:20:23.283Z,25.8
2023-01-05T13:21:24.965Z,25.8
2023-01-05T13:22:26.647Z,25.8
2023-01-05T13:23:28.322Z,25.8
2023-01-05T13:24:30.199Z,25.8
2023-01-05T13:25:31.954Z,25.8
2023-01-05T13:26:37.904Z,25.8
2023-01-05T13:27:40.284Z,25.8
2023-01-05T13:28:42.274Z,25.8
2023-01-05T13:29:44.487Z,25.8
2023-01-05T13:30:46.146Z,25.8
2023-01-05T13:31:47.919Z,25.8
2023-01-05T13:32:49.916Z,25.8
2023-01-05T13:33:53.512Z,25.8
2023-01-05T13:34:57.123Z,25.8
2023-01-05T13:35:58.764Z,25.8
2023-01-05T13:37:00.541Z,25.9
2023-01-05T13:38:02.144Z,25.9
2023-01-05T13:39:03.795Z,25.9
2023-01-05T13:40:05.491Z,25.9
2023-01-05T13:41:07.245Z,25.9
2023-01-05T13:42:08.895Z,25.8
2023-01-05T13:43:10.610Z,25.8
2023-01-05T13:44:12.479Z,25.8
2023-01-05T13:45:14.131Z,25.8
2023-01-05T13:46:16.216Z,25.8
2023-01-05T13:47:18.895Z,25.8
2023-01-05T13:48:38.196Z,25.8
2023-01-05T13:50:06.415Z,25.8
2023-01-05T13:51:08.162Z,25.8
2023-01-05T13:52:09.778Z,25.8
2023-01-05T13:53:11.465Z,25.8
2023-01-05T13:54:13.532Z,25.8
2023-01-05T13:55:24.899Z,25.8
2023-01-05T13:56:28.395Z,25.8
2023-01-05T13:57:30.087Z,25.9
2023-01-05T13:58:31.857Z,25.9
2023-01-05T13:59:44.135Z,25.9
2023-01-05T14:01:13.318Z,26
2023-01-05T14:02:15.626Z,26.1
2023-01-05T14:03:17.515Z,26.1
2023-01-05T14:04:19.538Z,26.1
2023-01-05T14:05:21.218Z,26.1
2023-01-05T14:06:22.910Z,26